sensor_id;sensor_type;location;lat;lon;timestamp;pressure;altitude;pressure_sealevel;temperature;humidity
51299;BME280;37382;45.192;9.790;2023-02-19T05:03:51;102064.19;;;3.60;100.00
51299;BME280;37382;45.192;9.790;2023-02-19T05:06:19;102061.88;;;3.89;100.00
51299;BME280;37382;45.192;9.790;2023-02-19T05:08:47;102057.09;;;4.15;100.00
51299;BME280;37382;45.192;9.790;2023-02-19T05:11:15;102056.72;;;3.74;100.00
51299;BME280;37382;45.192;9.790;2023-02-19T05:13:42;102059.88;;;3.57;100.00
51299;BME280;37382;45.192;9.790;2023-02-19T05:16:11;102064.59;;;3.31;100.00
51299;BME280;37382;45.192;9.790;2023-02-19T05:18:41;102059.19;;;3.78;100.00
51299;BME280;37382;45.192;9.790;2023-02-19T05:21:11;102050.50;;;4.08;100.00
51299;BME280;37382;45.192;9.790;2023-02-19T05:23:40;102047.56;;;4.00;100.00
51299;BME280;37382;45.192;9.790;2023-02-19T05:26:11;102049.53;;;3.98;100.00
51299;BME280;37382;45.192;9.790;2023-02-19T05:28:39;102052.41;;;3.49;100.00
51299;BME280;37382;45.192;9.790;2023-02-19T05:31:07;102049.69;;;3.38;100.00
51299;BME280;37382;45.192;9.790;2023-02-19T05:33:36;102061.97;;;3.18;100.00
51299;BME280;37382;45.192;9.790;2023-02-19T05:36:06;102060.28;;;2.93;100.00
51299;BME280;37382;45.192;9.790;2023-02-19T05:38:35;102061.72;;;2.85;100.00
51299;BME280;37382;45.192;9.790;2023-02-19T05:41:13;102068.59;;;2.90;100.00
51299;BME280;37382;45.192;9.790;2023-02-19T05:43:42;102060.28;;;2.93;100.00
51299;BME280;37382;45.192;9.790;2023-02-19T05:46:12;102063.81;;;3.17;100.00
51299;BME280;37382;45.192;9.790;2023-02-19T05:48:40;102066.16;;;3.69;100.00
51299;BME280;37382;45.192;9.790;2023-02-19T05:51:14;102047.94;;;3.95;100.00
51299;BME280;37382;45.192;9.790;2023-02-19T05:53:42;102050.72;;;3.71;100.00
51299;BME280;37382;45.192;9.790;2023-02-19T05:56:31;102057.09;;;3.81;100.00
51299;BME280;37382;45.192;9.790;2023-02-19T05:59:02;102053.03;;;3.53;100.00
51299;BME280;37382;45.192;9.790;2023-02-19T06:01:30;102057.00;;;3.25;100.00
51299;BME280;37382;45.192;9.790;2023-02-19T06:03:58;102052.38;;;2.78;100.00
51299;BME280;37382;45.192;9.790;2023-02-19T06:06:27;102053.28;;;2.79;100.00
51299;BME280;37382;45.192;9.790;2023-02-19T06:08:54;102048.50;;;2.82;100.00
51299;BME280;37382;45.192;9.790;2023-02-19T06:11:22;102054.91;;;2.69;100.00
51299;BME280;37382;45.192;9.790;2023-02-19T06:13:50;102051.84;;;3.22;100.00
51299;BME280;37382;45.192;9.790;2023-02-19T06:16:17;102046.03;;;3.39;100.00
51299;BME280;37382;45.192;9.790;2023-02-19T06:18:45;102050.31;;;3.42;100.00
51299;BME280;37382;45.192;9.790;2023-02-19T06:21:15;102046.16;;;3.02;100.00
51299;BME280;37382;45.192;9.790;2023-02-19T06:23:43;102049.47;;;3.06;100.00
51299;BME280;37382;45.192;9.790;2023-02-19T06:28:40;102055.84;;;3.16;100.00
51299;BME280;37382;45.192;9.790;2023-02-19T06:31:09;102057.19;;;3.10;100.00
51299;BME280;37382;45.192;9.790;2023-02-19T06:33:38;102051.94;;;2.84;100.00
51299;BME280;37382;45.192;9.790;2023-02-19T06:36:10;102039.16;;;3.35;100.00
51299;BME280;37382;45.192;9.790;2023-02-19T06:38:38;102054.13;;;2.79;100.00
51299;BME280;37382;45.192;9.790;2023-02-19T06:41:06;102049.91;;;3.24;100.00
51299;BME280;37382;45.192;9.790;2023-02-19T06:43:34;102048.53;;;3.65;100.00
51299;BME280;37382;45.192;9.790;2023-02-19T06:46:04;102055.72;;;3.06;100.00
51299;BME280;37382;45.192;9.790;2023-02-19T06:48:32;102050.91;;;3.34;100.00
51299;BME280;37382;45.192;9.790;2023-02-19T06:51:00;102051.63;;;2.65;100.00
51299;BME280;37382;45.192;9.790;2023-02-19T06:53:28;102058.25;;;2.35;100.00
51299;BME280;37382;45.192;9.790;2023-02-19T06:56:02;102060.22;;;2.20;100.00
51299;BME280;37382;45.192;9.790;2023-02-19T06:58:30;102059.78;;;2.26;100.00
51299;BME280;37382;45.192;9.790;2023-02-19T07:00:57;102068.16;;;2.22;100.00
51299;BME280;37382;45.192;9.790;2023-02-19T07:03:25;102069.34;;;2.18;100.00
51299;BME280;37382;45.192;9.790;2023-02-19T07:05:53;102073.22;;;2.13;100.00
51299;BME280;37382;45.192;9.790;2023-02-19T07:08:20;102077.22;;;1.95;100.00
51299;BME280;37382;45.192;9.790;2023-02-19T07:10:58;102076.03;;;1.86;100.00
51299;BME280;37382;45.192;9.790;2023-02-19T07:13:26;102081.19;;;1.76;100.00
51299;BME280;37382;45.192;9.790;2023-02-19T07:16:02;102067.75;;;2.02;100.00
51299;BME280;37382;45.192;9.790;2023-02-19T07:18:30;102066.88;;;2.14;100.00
51299;BME280;37382;45.192;9.790;2023-02-19T07:21:09;102064.91;;;2.42;100.00
51299;BME280;37382;45.192;9.790;2023-02-19T07:23:39;102068.81;;;2.62;100.00
51299;BME280;37382;45.192;9.790;2023-02-19T07:26:11;102065.72;;;2.80;100.00
51299;BME280;37382;45.192;9.790;2023-02-19T07:28:43;102074.47;;;2.95;100.00
51299;BME280;37382;45.192;9.790;2023-02-19T07:31:11;102052.78;;;3.56;100.00
51299;BME280;37382;45.192;9.790;2023-02-19T07:33:42;102045.38;;;4.16;100.00
51299;BME280;37382;45.192;9.790;2023-02-19T07:36:11;102049.47;;;4.43;100.00
51299;BME280;37382;45.192;9.790;2023-02-19T07:38:39;102044.13;;;4.09;100.00
51299;BME280;37382;45.192;9.790;2023-02-19T07:41:07;102044.38;;;3.72;100.00
51299;BME280;37382;45.192;9.790;2023-02-19T07:43:36;102050.63;;;3.84;100.00
51299;BME280;37382;45.192;9.790;2023-02-19T07:46:05;102046.97;;;3.96;100.00
51299;BME280;37382;45.192;9.790;2023-02-19T07:48:34;102047.69;;;3.98;100.00
51299;BME280;37382;45.192;9.790;2023-02-19T07:51:03;102042.91;;;4.02;100.00
51299;BME280;37382;45.192;9.790;2023-02-19T07:53:32;102051.34;;;3.97;100.00
51299;BME280;37382;45.192;9.790;2023-02-19T07:56:01;102052.47;;;4.17;100.00
51299;BME280;37382;45.192;9.790;2023-02-19T07:58:30;102045.31;;;4.82;100.00
51299;BME280;37382;45.192;9.790;2023-02-19T08:01:15;102051.88;;;4.69;100.00
51299;BME280;37382;45.192;9.790;2023-02-19T08:03:43;102058.34;;;5.10;100.00
51299;BME280;37382;45.192;9.790;2023-02-19T08:06:11;102055.66;;;5.10;100.00
51299;BME280;37382;45.192;9.790;2023-02-19T08:08:39;102054.84;;;4.98;100.00
51299;BME280;37382;45.192;9.790;2023-02-19T08:11:06;102044.94;;;5.20;100.00
51299;BME280;37382;45.192;9.790;2023-02-19T08:13:53;102037.97;;;5.38;100.00
51299;BME280;37382;45.192;9.790;2023-02-19T08:16:21;102029.03;;;4.84;100.00
51299;BME280;37382;45.192;9.790;2023-02-19T08:19:08;102024.47;;;5.17;100.00
51299;BME280;37382;45.192;9.790;2023-02-19T08:21:35;102028.25;;;5.26;100.00
51299;BME280;37382;45.192;9.790;2023-02-19T08:24:04;102034.47;;;5.68;100.00
51299;BME280;37382;45.192;9.790;2023-02-19T08:26:32;102044.59;;;5.76;100.00
51299;BME280;37382;45.192;9.790;2023-02-19T08:29:00;102055.16;;;5.58;100.00
51299;BME280;37382;45.192;9.790;2023-02-19T08:31:27;102061.91;;;5.74;100.00
51299;BME280;37382;45.192;9.790;2023-02-19T08:33:55;102050.09;;;5.96;100.00
51299;BME280;37382;45.192;9.790;2023-02-19T08:36:23;102047.03;;;5.79;100.00
51299;BME280;37382;45.192;9.790;2023-02-19T08:38:50;102060.16;;;5.94;100.00
51299;BME280;37382;45.192;9.790;2023-02-19T08:41:18;102041.31;;;6.34;100.00
51299;BME280;37382;45.192;9.790;2023-02-19T08:43:45;102033.13;;;6.85;100.00
51299;BME280;37382;45.192;9.790;2023-02-19T08:46:13;102047.34;;;6.57;100.00
51299;BME280;37382;45.192;9.790;2023-02-19T08:48:40;102052.50;;;6.80;100.00
51299;BME280;37382;45.192;9.790;2023-02-19T08:51:09;102037.09;;;6.61;100.00
51299;BME280;37382;45.192;9.790;2023-02-19T08:53:39;102039.41;;;6.95;100.00
51299;BME280;37382;45.192;9.790;2023-02-19T08:56:09;102039.56;;;7.13;100.00
51299;BME280;37382;45.192;9.790;2023-02-19T08:58:37;102026.78;;;7.62;100.00
51299;BME280;37382;45.192;9.790;2023-02-19T09:01:08;102027.13;;;7.40;100.00
51299;BME280;37382;45.192;9.790;2023-02-19T09:03:37;102031.41;;;7.42;100.00
51299;BME280;37382;45.192;9.790;2023-02-19T09:06:05;102021.84;;;7.38;100.00
51299;BME280;37382;45.192;9.790;2023-02-19T09:08:33;102017.47;;;7.37;100.00
51299;BME280;37382;45.192;9.790;2023-02-19T09:11:02;102015.78;;;7.74;100.00
51299;BME280;37382;45.192;9.790;2023-02-19T09:13:30;102016.28;;;7.50;100.00
51299;BME280;37382;45.192;9.790;2023-02-19T09:15:58;102014.28;;;7.52;100.00
51299;BME280;37382;45.192;9.790;2023-02-19T09:18:26;102011.22;;;7.74;100.00
51299;BME280;37382;45.192;9.790;2023-02-19T09:20:53;102020.13;;;7.57;100.00
51299;BME280;37382;45.192;9.790;2023-02-19T09:23:21;102007.44;;;7.95;100.00
51299;BME280;37382;45.192;9.790;2023-02-19T09:25:55;102010.66;;;8.08;100.00
51299;BME280;37382;45.192;9.790;2023-02-19T09:28:23;102007.47;;;8.13;100.00
51299;BME280;37382;45.192;9.790;2023-02-19T09:30:50;102013.59;;;8.43;100.00
51299;BME280;37382;45.192;9.790;2023-02-19T09:33:17;102004.28;;;8.73;100.00
51299;BME280;37382;45.192;9.790;2023-02-19T09:35:45;102000.88;;;8.53;100.00
51299;BME280;37382;45.192;9.790;2023-02-19T09:38:12;101999.22;;;8.60;100.00
51299;BME280;37382;45.192;9.790;2023-02-19T09:40:40;101999.56;;;8.75;100.00
51299;BME280;37382;45.192;9.790;2023-02-19T09:43:14;101998.72;;;9.11;100.00
51299;BME280;37382;45.192;9.790;2023-02-19T09:45:43;102003.75;;;8.87;100.00
51299;BME280;37382;45.192;9.790;2023-02-19T09:48:11;101987.94;;;9.27;100.00
51299;BME280;37382;45.192;9.790;2023-02-19T09:50:41;101996.53;;;9.14;100.00
51299;BME280;37382;45.192;9.790;2023-02-19T09:53:17;101995.84;;;9.38;100.00
51299;BME280;37382;45.192;9.790;2023-02-19T09:55:47;102003.03;;;9.21;100.00
51299;BME280;37382;45.192;9.790;2023-02-19T09:58:25;102009.63;;;9.19;100.00
51299;BME280;37382;45.192;9.790;2023-02-19T10:00:55;101994.91;;;9.48;100.00
51299;BME280;37382;45.192;9.790;2023-02-19T10:03:29;101991.47;;;9.72;100.00
51299;BME280;37382;45.192;9.790;2023-02-19T10:06:04;101992.09;;;10.00;100.00
51299;BME280;37382;45.192;9.790;2023-02-19T10:08:35;101989.13;;;10.11;100.00
51299;BME280;37382;45.192;9.790;2023-02-19T10:11:04;101974.59;;;9.94;100.00
51299;BME280;37382;45.192;9.790;2023-02-19T10:13:44;101980.91;;;10.03;100.00
51299;BME280;37382;45.192;9.790;2023-02-19T10:16:18;101986.03;;;9.72;100.00
51299;BME280;37382;45.192;9.790;2023-02-19T10:18:46;101975.13;;;10.49;100.00
51299;BME280;37382;45.192;9.790;2023-02-19T10:21:23;101974.97;;;10.42;100.00
51299;BME280;37382;45.192;9.790;2023-02-19T10:23:58;101976.84;;;10.50;100.00
51299;BME280;37382;45.192;9.790;2023-02-19T10:26:25;101973.94;;;10.52;100.00
51299;BME280;37382;45.192;9.790;2023-02-19T10:28:53;101965.81;;;10.60;100.00
51299;BME280;37382;45.192;9.790;2023-02-19T10:31:24;101971.06;;;10.53;100.00
51299;BME280;37382;45.192;9.790;2023-02-19T10:33:55;101965.13;;;10.49;100.00
51299;BME280;37382;45.192;9.790;2023-02-19T10:36:28;101965.47;;;10.79;100.00
51299;BME280;37382;45.192;9.790;2023-02-19T10:41:50;101952.03;;;10.78;100.00
51299;BME280;37382;45.192;9.790;2023-02-19T10:44:26;101943.22;;;11.09;100.00
51299;BME280;37382;45.192;9.790;2023-02-19T10:46:58;101948.63;;;11.00;100.00
51299;BME280;37382;45.192;9.790;2023-02-19T10:49:33;101953.41;;;10.82;100.00
51299;BME280;37382;45.192;9.790;2023-02-19T10:52:26;101941.66;;;11.14;100.00
51299;BME280;37382;45.192;9.790;2023-02-19T10:57:41;101953.81;;;11.68;100.00
51299;BME280;37382;45.192;9.790;2023-02-19T11:02:44;101937.28;;;11.61;100.00
51299;BME280;37382;45.192;9.790;2023-02-19T11:10:25;101921.19;;;11.83;100.00
51299;BME280;37382;45.192;9.790;2023-02-19T11:12:59;101917.06;;;12.03;100.00
51299;BME280;37382;45.192;9.790;2023-02-19T11:15:33;101915.97;;;11.65;100.00
51299;BME280;37382;45.192;9.790;2023-02-19T11:18:07;101900.63;;;12.12;100.00
51299;BME280;37382;45.192;9.790;2023-02-19T11:20:48;101908.66;;;12.36;100.00
51299;BME280;37382;45.192;9.790;2023-02-19T11:23:20;101895.44;;;12.25;100.00
51299;BME280;37382;45.192;9.790;2023-02-19T11:25:50;101888.34;;;12.39;100.00
51299;BME280;37382;45.192;9.790;2023-02-19T11:28:36;101887.81;;;12.20;100.00
51299;BME280;37382;45.192;9.790;2023-02-19T11:31:24;101877.25;;;12.40;100.00
51299;BME280;37382;45.192;9.790;2023-02-19T11:36:40;101879.97;;;12.87;100.00
51299;BME280;37382;45.192;9.790;2023-02-19T11:39:20;101875.38;;;13.17;100.00
51299;BME280;37382;45.192;9.790;2023-02-19T11:42:12;101876.16;;;12.88;100.00
51299;BME280;37382;45.192;9.790;2023-02-19T12:07:00;101823.34;;;13.70;100.00
51299;BME280;37382;45.192;9.790;2023-02-19T12:09:57;101826.00;;;13.63;100.00
51299;BME280;37382;45.192;9.790;2023-02-19T12:12:54;101835.16;;;13.92;100.00
51299;BME280;37382;45.192;9.790;2023-02-19T12:18:51;101823.66;;;13.97;100.00
51299;BME280;37382;45.192;9.790;2023-02-19T12:41:27;101778.72;;;15.19;100.00
51299;BME280;37382;45.192;9.790;2023-02-19T12:44:32;101774.97;;;14.92;100.00
51299;BME280;37382;45.192;9.790;2023-02-19T12:47:03;101773.31;;;15.33;100.00
51299;BME280;37382;45.192;9.790;2023-02-19T12:49:42;101763.66;;;15.43;100.00
51299;BME280;37382;45.192;9.790;2023-02-19T12:52:23;101760.25;;;16.16;100.00
51299;BME280;37382;45.192;9.790;2023-02-19T12:54:53;101762.13;;;15.34;100.00
51299;BME280;37382;45.192;9.790;2023-02-19T12:57:28;101756.88;;;15.33;100.00
51299;BME280;37382;45.192;9.790;2023-02-19T13:00:02;101765.28;;;15.24;100.00
51299;BME280;37382;45.192;9.790;2023-02-19T13:06:09;101757.28;;;15.36;100.00
51299;BME280;37382;45.192;9.790;2023-02-19T13:08:55;101742.53;;;15.37;100.00
51299;BME280;37382;45.192;9.790;2023-02-19T13:11:41;101745.13;;;15.52;100.00
51299;BME280;37382;45.192;9.790;2023-02-19T13:17:10;101732.44;;;15.51;100.00
51299;BME280;37382;45.192;9.790;2023-02-19T13:19:45;101733.94;;;15.47;100.00
51299;BME280;37382;45.192;9.790;2023-02-19T13:22:35;101729.34;;;15.74;100.00
51299;BME280;37382;45.192;9.790;2023-02-19T13:25:38;101721.09;;;15.68;100.00
51299;BME280;37382;45.192;9.790;2023-02-19T13:31:08;101712.84;;;15.54;100.00
51299;BME280;37382;45.192;9.790;2023-02-19T13:33:45;101703.38;;;15.63;100.00
51299;BME280;37382;45.192;9.790;2023-02-19T13:36:23;101700.00;;;15.55;100.00
51299;BME280;37382;45.192;9.790;2023-02-19T13:38:53;101705.91;;;15.65;100.00
51299;BME280;37382;45.192;9.790;2023-02-19T13:44:02;101680.66;;;16.30;100.00
51299;BME280;37382;45.192;9.790;2023-02-19T13:46:41;101688.09;;;17.01;100.00
51299;BME280;37382;45.192;9.790;2023-02-19T13:51:59;101647.53;;;18.98;100.00
51299;BME280;37382;45.192;9.790;2023-02-19T13:54:31;101639.41;;;19.76;100.00
51299;BME280;37382;45.192;9.790;2023-02-19T13:59:50;101623.88;;;22.75;92.65
51299;BME280;37382;45.192;9.790;2023-02-19T14:02:31;101631.59;;;22.17;94.02
51299;BME280;37382;45.192;9.790;2023-02-19T14:05:05;101642.97;;;21.07;98.87
51299;BME280;37382;45.192;9.790;2023-02-19T14:10:04;101650.81;;;22.80;84.13
51299;BME280;37382;45.192;9.790;2023-02-19T14:12:35;101656.91;;;23.80;78.00
51299;BME280;37382;45.192;9.790;2023-02-19T14:15:42;101655.63;;;23.34;79.17
51299;BME280;37382;45.192;9.790;2023-02-19T14:21:15;101652.34;;;24.34;74.12
51299;BME280;37382;45.192;9.790;2023-02-19T14:23:44;101648.22;;;25.00;70.52
51299;BME280;37382;45.192;9.790;2023-02-19T14:26:17;101637.31;;;28.42;61.15
51299;BME280;37382;45.192;9.790;2023-02-19T14:28:46;101639.63;;;28.35;54.96
51299;BME280;37382;45.192;9.790;2023-02-19T14:31:29;101631.25;;;27.71;57.05
51299;BME280;37382;45.192;9.790;2023-02-19T14:34:03;101611.88;;;26.09;53.92
51299;BME280;37382;45.192;9.790;2023-02-19T14:36:46;101622.63;;;26.62;55.78
51299;BME280;37382;45.192;9.790;2023-02-19T14:39:19;101637.63;;;24.86;58.72
51299;BME280;37382;45.192;9.790;2023-02-19T14:41:56;101644.53;;;22.45;65.84
51299;BME280;37382;45.192;9.790;2023-02-19T14:44:42;101650.19;;;19.96;77.10
51299;BME280;37382;45.192;9.790;2023-02-19T14:47:16;101648.91;;;19.38;86.46
51299;BME280;37382;45.192;9.790;2023-02-19T14:52:27;101654.69;;;17.04;100.00
51299;BME280;37382;45.192;9.790;2023-02-19T14:55:08;101660.66;;;16.81;100.00
51299;BME280;37382;45.192;9.790;2023-02-19T14:57:39;101659.06;;;17.51;100.00
51299;BME280;37382;45.192;9.790;2023-02-19T15:00:35;101653.84;;;17.04;100.00
51299;BME280;37382;45.192;9.790;2023-02-19T15:03:04;101651.44;;;17.21;100.00
51299;BME280;37382;45.192;9.790;2023-02-19T15:05:34;101654.25;;;17.07;100.00
51299;BME280;37382;45.192;9.790;2023-02-19T15:08:17;101657.78;;;16.63;100.00
51299;BME280;37382;45.192;9.790;2023-02-19T15:10:47;101660.38;;;16.24;100.00
51299;BME280;37382;45.192;9.790;2023-02-19T15:13:19;101659.00;;;16.74;100.00
51299;BME280;37382;45.192;9.790;2023-02-19T15:15:48;101653.19;;;17.02;100.00
51299;BME280;37382;45.192;9.790;2023-02-19T15:18:19;101655.28;;;17.13;100.00
51299;BME280;37382;45.192;9.790;2023-02-19T15:20:48;101663.53;;;17.06;100.00
51299;BME280;37382;45.192;9.790;2023-02-19T15:23:21;101659.75;;;17.07;100.00
51299;BME280;37382;45.192;9.790;2023-02-19T15:25:50;101660.06;;;17.24;100.00
51299;BME280;37382;45.192;9.790;2023-02-19T15:33:26;101656.06;;;16.55;100.00
51299;BME280;37382;45.192;9.790;2023-02-19T15:35:57;101653.19;;;16.30;100.00
51299;BME280;37382;45.192;9.790;2023-02-19T15:38:27;101646.00;;;16.35;100.00
51299;BME280;37382;45.192;9.790;2023-02-19T15:40:55;101637.53;;;16.44;100.00
51299;BME280;37382;45.192;9.790;2023-02-19T15:43:32;101645.09;;;16.55;100.00
51299;BME280;37382;45.192;9.790;2023-02-19T15:46:08;101645.06;;;16.75;100.00
51299;BME280;37382;45.192;9.790;2023-02-19T15:48:43;101639.13;;;17.23;100.00
51299;BME280;37382;45.192;9.790;2023-02-19T15:51:16;101620.63;;;19.97;100.00
51299;BME280;37382;45.192;9.790;2023-02-19T15:53:48;101623.50;;;21.59;100.00
51299;BME280;37382;45.192;9.790;2023-02-19T15:56:31;101630.19;;;19.28;100.00
51299;BME280;37382;45.192;9.790;2023-02-19T16:01:41;101640.78;;;17.63;100.00
51299;BME280;37382;45.192;9.790;2023-02-19T16:04:14;101642.25;;;17.34;100.00
51299;BME280;37382;45.192;9.790;2023-02-19T16:09:30;101630.41;;;17.65;100.00
51299;BME280;37382;45.192;9.790;2023-02-19T16:12:00;101633.78;;;17.67;100.00
51299;BME280;37382;45.192;9.790;2023-02-19T16:14:32;101648.88;;;17.90;100.00
51299;BME280;37382;45.192;9.790;2023-02-19T16:17:13;101652.03;;;18.37;100.00
51299;BME280;37382;45.192;9.790;2023-02-19T16:19:56;101649.16;;;17.75;100.00
51299;BME280;37382;45.192;9.790;2023-02-19T16:22:28;101661.13;;;17.62;100.00
51299;BME280;37382;45.192;9.790;2023-02-19T16:25:01;101649.25;;;17.30;100.00
51299;BME280;37382;45.192;9.790;2023-02-19T16:27:38;101656.38;;;17.05;100.00
51299;BME280;37382;45.192;9.790;2023-02-19T16:32:43;101659.53;;;16.24;100.00
51299;BME280;37382;45.192;9.790;2023-02-19T16:35:34;101665.47;;;16.00;100.00
51299;BME280;37382;45.192;9.790;2023-02-19T16:38:01;101666.88;;;15.70;100.00
51299;BME280;37382;45.192;9.790;2023-02-19T16:45:57;101656.09;;;15.41;100.00
51299;BME280;37382;45.192;9.790;2023-02-19T16:48:25;101662.56;;;15.14;100.00
51299;BME280;37382;45.192;9.790;2023-02-19T16:50:53;101666.47;;;14.98;100.00
51299;BME280;37382;45.192;9.790;2023-02-19T16:53:23;101673.56;;;14.79;100.00
51299;BME280;37382;45.192;9.790;2023-02-19T16:55:55;101684.44;;;14.65;100.00
51299;BME280;37382;45.192;9.790;2023-02-19T16:58:22;101689.59;;;14.53;100.00
51299;BME280;37382;45.192;9.790;2023-02-19T17:00:50;101712.19;;;14.34;100.00
51299;BME280;37382;45.192;9.790;2023-02-19T17:03:20;101714.84;;;14.20;100.00
51299;BME280;37382;45.192;9.790;2023-02-19T17:05:50;101725.41;;;14.02;100.00
51299;BME280;37382;45.192;9.790;2023-02-19T17:08:28;101733.00;;;13.78;100.00
51299;BME280;37382;45.192;9.790;2023-02-19T17:10:57;101737.41;;;13.79;100.00
51299;BME280;37382;45.192;9.790;2023-02-19T17:13:25;101744.75;;;13.79;100.00
51299;BME280;37382;45.192;9.790;2023-02-19T17:15:53;101745.44;;;13.44;100.00
51299;BME280;37382;45.192;9.790;2023-02-19T17:18:21;101751.75;;;13.15;100.00
51299;BME280;37382;45.192;9.790;2023-02-19T17:21:04;101752.78;;;13.14;100.00
51299;BME280;37382;45.192;9.790;2023-02-19T17:23:36;101755.81;;;13.19;100.00
51299;BME280;37382;45.192;9.790;2023-02-19T17:26:04;101752.41;;;13.32;100.00
51299;BME280;37382;45.192;9.790;2023-02-19T17:28:32;101759.03;;;13.38;100.00
51299;BME280;37382;45.192;9.790;2023-02-19T17:30:59;101774.97;;;13.34;100.00
51299;BME280;37382;45.192;9.790;2023-02-19T17:33:27;101776.81;;;13.33;100.00
51299;BME280;37382;45.192;9.790;2023-02-19T17:35:56;101793.88;;;13.21;100.00
51299;BME280;37382;45.192;9.790;2023-02-19T17:38:24;101791.78;;;13.08;100.00
51299;BME280;37382;45.192;9.790;2023-02-19T17:40:51;101787.66;;;12.97;100.00
51299;BME280;37382;45.192;9.790;2023-02-19T17:43:19;101794.06;;;13.04;100.00
51299;BME280;37382;45.192;9.790;2023-02-19T17:45:46;101799.72;;;13.03;100.00
51299;BME280;37382;45.192;9.790;2023-02-19T17:48:14;101816.44;;;12.55;100.00
51299;BME280;37382;45.192;9.790;2023-02-19T17:50:42;101830.06;;;12.32;100.00
51299;BME280;37382;45.192;9.790;2023-02-19T17:53:09;101828.69;;;12.36;100.00
51299;BME280;37382;45.192;9.790;2023-02-19T17:55:37;101831.22;;;12.37;100.00
51299;BME280;37382;45.192;9.790;2023-02-19T17:58:04;101837.88;;;12.35;100.00
51299;BME280;37382;45.192;9.790;2023-02-19T18:00:32;101834.97;;;12.36;100.00
51299;BME280;37382;45.192;9.790;2023-02-19T18:03:01;101839.56;;;12.44;100.00
51299;BME280;37382;45.192;9.790;2023-02-19T18:05:29;101837.72;;;12.36;100.00
51299;BME280;37382;45.192;9.790;2023-02-19T18:07:57;101822.25;;;12.28;100.00
51299;BME280;37382;45.192;9.790;2023-02-19T18:10:24;101835.41;;;12.25;100.00
51299;BME280;37382;45.192;9.790;2023-02-19T18:12:52;101838.75;;;12.35;100.00
51299;BME280;37382;45.192;9.790;2023-02-19T18:15:24;101842.25;;;12.21;100.00
51299;BME280;37382;45.192;9.790;2023-02-19T18:17:54;101853.31;;;12.04;100.00
51299;BME280;37382;45.192;9.790;2023-02-19T18:20:27;101854.94;;;12.14;100.00
51299;BME280;37382;45.192;9.790;2023-02-19T18:22:55;101843.25;;;12.28;100.00
51299;BME280;37382;45.192;9.790;2023-02-19T18:25:23;101845.84;;;12.21;100.00
51299;BME280;37382;45.192;9.790;2023-02-19T18:27:51;101848.22;;;12.24;100.00
51299;BME280;37382;45.192;9.790;2023-02-19T18:30:20;101838.31;;;11.92;100.00
51299;BME280;37382;45.192;9.790;2023-02-19T18:32:49;101844.25;;;12.04;100.00
51299;BME280;37382;45.192;9.790;2023-02-19T18:35:18;101857.34;;;12.08;100.00
51299;BME280;37382;45.192;9.790;2023-02-19T18:37:52;101854.63;;;11.69;100.00
51299;BME280;37382;45.192;9.790;2023-02-19T18:40:22;101864.00;;;11.66;100.00
51299;BME280;37382;45.192;9.790;2023-02-19T18:42:52;101877.34;;;11.61;100.00
51299;BME280;37382;45.192;9.790;2023-02-19T18:45:19;101879.69;;;11.72;100.00
51299;BME280;37382;45.192;9.790;2023-02-19T18:47:48;101882.72;;;11.78;100.00
51299;BME280;37382;45.192;9.790;2023-02-19T18:50:17;101886.81;;;11.82;100.00
51299;BME280;37382;45.192;9.790;2023-02-19T18:52:44;101893.56;;;11.86;100.00
51299;BME280;37382;45.192;9.790;2023-02-19T18:55:12;101896.81;;;11.89;100.00
51299;BME280;37382;45.192;9.790;2023-02-19T18:57:39;101905.16;;;11.88;100.00
51299;BME280;37382;45.192;9.790;2023-02-19T19:00:08;101910.69;;;11.71;100.00
51299;BME280;37382;45.192;9.790;2023-02-19T19:02:35;101915.66;;;11.60;100.00
51299;BME280;37382;45.192;9.790;2023-02-19T19:05:19;101919.09;;;11.53;100.00
51299;BME280;37382;45.192;9.790;2023-02-19T19:07:50;101923.66;;;11.61;100.00
51299;BME280;37382;45.192;9.790;2023-02-19T19:10:20;101921.25;;;11.74;100.00
51299;BME280;37382;45.192;9.790;2023-02-19T19:12:48;101921.41;;;11.73;100.00
51299;BME280;37382;45.192;9.790;2023-02-19T19:15:16;101929.78;;;11.63;100.00
51299;BME280;37382;45.192;9.790;2023-02-19T19:17:45;101923.34;;;11.56;100.00
51299;BME280;37382;45.192;9.790;2023-02-19T19:20:16;101916.78;;;11.17;100.00
51299;BME280;37382;45.192;9.790;2023-02-19T19:22:47;101921.06;;;10.87;100.00
51299;BME280;37382;45.192;9.790;2023-02-19T19:25:14;101925.22;;;10.15;100.00
51299;BME280;37382;45.192;9.790;2023-02-19T19:27:42;101931.63;;;9.64;100.00
51299;BME280;37382;45.192;9.790;2023-02-19T19:30:09;101929.72;;;9.56;100.00
51299;BME280;37382;45.192;9.790;2023-02-19T19:32:37;101933.38;;;9.38;100.00
51299;BME280;37382;45.192;9.790;2023-02-19T19:35:04;101942.13;;;9.50;100.00
51299;BME280;37382;45.192;9.790;2023-02-19T19:37:32;101943.16;;;9.57;100.00
51299;BME280;37382;45.192;9.790;2023-02-19T19:40:00;101950.06;;;9.78;100.00
51299;BME280;37382;45.192;9.790;2023-02-19T19:42:27;101946.72;;;9.92;100.00
51299;BME280;37382;45.192;9.790;2023-02-19T19:44:54;101946.06;;;9.98;100.00
51299;BME280;37382;45.192;9.790;2023-02-19T19:47:23;101941.53;;;9.73;100.00
51299;BME280;37382;45.192;9.790;2023-02-19T19:49:50;101961.38;;;9.65;100.00
51299;BME280;37382;45.192;9.790;2023-02-19T19:52:17;101973.28;;;9.64;100.00
51299;BME280;37382;45.192;9.790;2023-02-19T19:54:45;101970.50;;;9.90;100.00
51299;BME280;37382;45.192;9.790;2023-02-19T19:57:14;101978.53;;;9.66;100.00
51299;BME280;37382;45.192;9.790;2023-02-19T19:59:42;101986.06;;;9.80;100.00